createdAt,value
2023-04-30T00:00:10.641Z,81.53
2023-04-30T00:02:38.502Z,81.68
2023-04-30T00:05:07.614Z,82.22
2023-04-30T00:07:34.842Z,81.89
2023-04-30T00:10:02.788Z,81.88
2023-04-30T00:12:29.996Z,81.86
2023-04-30T00:14:57.508Z,81.75
2023-04-30T00:17:25.345Z,82.23
2023-04-30T00:19:52.888Z,82.05
2023-04-30T00:22:23.155Z,82.95
2023-04-30T00:24:50.434Z,81.59
2023-04-30T00:27:17.471Z,81.28
2023-04-30T00:29:44.713Z,81.65
2023-04-30T00:32:11.732Z,82.52
2023-04-30T00:34:38.569Z,82.11
2023-04-30T00:37:05.907Z,83.86
2023-04-30T00:39:33.547Z,83.22
2023-04-30T00:42:01.269Z,84.13
2023-04-30T00:44:28.551Z,83.95
2023-04-30T00:46:56.429Z,84.38
2023-04-30T00:49:23.924Z,84.31
2023-04-30T00:51:51.681Z,84.38
2023-04-30T00:54:21.434Z,84.50
2023-04-30T00:56:49.602Z,83.97
2023-04-30T00:59:17.754Z,84.25
2023-04-30T01:01:45.808Z,84.74
2023-04-30T01:04:13.336Z,84.49
2023-04-30T01:06:41.286Z,84.42
2023-04-30T01:09:08.664Z,84.80
2023-04-30T01:11:50.441Z,84.69
2023-04-30T01:14:21.810Z,84.56
2023-04-30T01:17:01.572Z,84.27
2023-04-30T01:19:44.905Z,84.54
2023-04-30T01:22:26.987Z,84.51
2023-04-30T01:25:31.628Z,85.38
2023-04-30T01:28:16.182Z,85.62
2023-04-30T01:30:47.036Z,85.42
2023-04-30T01:33:15.050Z,85.28
2023-04-30T01:35:51.338Z,85.76
2023-04-30T01:38:40.330Z,85.23
2023-04-30T01:41:21.748Z,84.95
2023-04-30T01:44:40.164Z,85.35
2023-04-30T01:47:24.700Z,85.00
2023-04-30T01:50:20.105Z,85.36
2023-04-30T01:52:52.809Z,85.96
2023-04-30T01:55:54.646Z,85.26
2023-04-30T01:58:24.316Z,85.78
2023-04-30T02:00:52.194Z,85.67
2023-04-30T02:03:19.644Z,85.82
2023-04-30T02:05:48.449Z,85.88
2023-04-30T02:08:15.623Z,86.18
2023-04-30T02:10:42.904Z,86.11
2023-04-30T02:13:10.425Z,87.01
2023-04-30T02:15:37.831Z,87.71
2023-04-30T02:18:08.083Z,87.65
2023-04-30T02:20:35.295Z,87.95
2023-04-30T02:23:03.680Z,88.12
2023-04-30T02:25:33.963Z,87.95
2023-04-30T02:28:01.510Z,87.68
2023-04-30T02:30:30.278Z,87.42
2023-04-30T02:32:58.119Z,88.19
2023-04-30T02:35:26.755Z,88.13
2023-04-30T02:37:54.267Z,87.97
2023-04-30T02:40:21.966Z,87.79
2023-04-30T02:42:49.943Z,87.86
2023-04-30T02:45:17.898Z,87.56
2023-04-30T02:47:45.415Z,88.05
2023-04-30T02:50:13.143Z,88.35
2023-04-30T02:52:42.333Z,88.85
2023-04-30T02:55:10.735Z,89.40
2023-04-30T02:57:38.360Z,90.10
2023-04-30T03:00:07.608Z,89.83
2023-04-30T03:02:36.970Z,89.93
2023-04-30T03:05:05.885Z,90.33
2023-04-30T03:07:36.481Z,90.77
2023-04-30T03:10:05.865Z,91.69
2023-04-30T03:12:34.005Z,91.77
2023-04-30T03:15:01.940Z,92.37
2023-04-30T03:17:29.944Z,92.54
2023-04-30T03:19:58.867Z,93.10
2023-04-30T03:22:28.527Z,93.64
2023-04-30T03:24:56.218Z,93.72
2023-04-30T03:27:24.299Z,93.96
2023-04-30T03:29:53.790Z,94.25
2023-04-30T03:32:22.088Z,94.85
2023-04-30T03:34:51.816Z,96.63
2023-04-30T03:37:21.720Z,97.25
2023-04-30T03:39:49.952Z,96.67
2023-04-30T03:42:17.498Z,97.04
2023-04-30T03:44:45.772Z,96.83
2023-04-30T03:47:13.683Z,97.25
2023-04-30T03:49:42.044Z,97.91
2023-04-30T03:52:09.753Z,98.04
2023-04-30T03:54:37.646Z,99.09
2023-04-30T03:57:05.952Z,100.00
2023-04-30T03:59:33.524Z,100.00
2023-04-30T04:02:06.618Z,100.00
2023-04-30T04:04:34.923Z,100.00
2023-04-30T04:07:03.923Z,100.00
2023-04-30T04:09:31.887Z,100.00
2023-04-30T04:12:00.075Z,100.00
2023-04-30T04:14:28.249Z,100.00
2023-04-30T04:16:58.461Z,100.00
2023-04-30T04:19:29.886Z,100.00
2023-04-30T04:21:58.366Z,97.72
2023-04-30T04:24:27.577Z,91.52
2023-04-30T04:26:56.372Z,87.16
2023-04-30T04:29:24.637Z,82.92
2023-04-30T04:31:53.697Z,74.72
2023-04-30T04:34:23.271Z,70.02
2023-04-30T04:36:51.465Z,62.45
2023-04-30T04:39:20.762Z,61.15
2023-04-30T04:41:48.989Z,58.76
2023-04-30T04:44:18.732Z,55.41
2023-04-30T04:46:47.817Z,54.76
2023-04-30T04:49:17.680Z,55.33
2023-04-30T04:51:45.720Z,56.16
2023-04-30T04:54:14.705Z,57.23
2023-04-30T04:56:43.032Z,57.81
2023-04-30T04:59:12.552Z,58.39
2023-04-30T05:01:40.253Z,58.61
2023-04-30T05:04:10.264Z,58.42
2023-04-30T05:06:38.904Z,59.34
2023-04-30T05:09:10.890Z,59.74
2023-04-30T05:11:42.122Z,58.97
2023-04-30T05:14:09.660Z,57.84
2023-04-30T05:16:37.635Z,57.22
2023-04-30T05:19:04.988Z,57.76
2023-04-30T05:21:32.376Z,57.67
2023-04-30T05:23:59.885Z,57.49
2023-04-30T05:26:27.368Z,57.33
2023-04-30T05:28:55.004Z,56.35
2023-04-30T05:31:22.417Z,55.64
2023-04-30T05:33:50.040Z,55.33
2023-04-30T05:36:17.520Z,55.55
2023-04-30T05:38:44.760Z,55.95
2023-04-30T05:41:13.171Z,55.29
2023-04-30T05:43:40.631Z,53.72
2023-04-30T05:46:08.368Z,54.33
2023-04-30T05:48:35.993Z,53.12
2023-04-30T05:51:03.337Z,53.58
2023-04-30T05:53:30.833Z,53.53
2023-04-30T05:55:57.759Z,54.10
2023-04-30T05:58:26.329Z,53.58
2023-04-30T06:00:54.976Z,53.06
2023-04-30T06:03:22.885Z,53.92
2023-04-30T06:05:50.548Z,53.07
2023-04-30T06:08:18.237Z,52.70
2023-04-30T06:10:45.480Z,53.76
2023-04-30T06:13:12.802Z,53.21
2023-04-30T06:15:40.104Z,52.40
2023-04-30T06:18:07.948Z,53.07
2023-04-30T06:20:35.339Z,53.03
2023-04-30T06:23:06.792Z,52.32
2023-04-30T06:25:34.170Z,51.81
2023-04-30T06:28:01.672Z,50.24
2023-04-30T06:30:30.573Z,50.26
2023-04-30T06:32:57.700Z,48.98
2023-04-30T06:35:24.608Z,48.21
2023-04-30T06:37:52.018Z,47.90
2023-04-30T06:40:20.962Z,47.47
2023-04-30T06:42:48.008Z,46.93
2023-04-30T06:45:15.570Z,46.64
2023-04-30T06:47:43.114Z,45.07
2023-04-30T06:50:11.137Z,45.83
2023-04-30T06:52:38.994Z,45.16
2023-04-30T06:55:07.144Z,43.28
2023-04-30T06:57:34.141Z,43.07
2023-04-30T07:00:02.733Z,40.95
2023-04-30T07:02:30.107Z,41.85
2023-04-30T07:04:58.263Z,40.61
2023-04-30T07:07:25.657Z,38.57
2023-04-30T07:09:54.158Z,39.12
2023-04-30T07:12:22.755Z,39.26
2023-04-30T07:14:50.048Z,37.72
2023-04-30T07:17:17.017Z,37.21
2023-04-30T07:19:44.098Z,37.75
2023-04-30T07:22:11.682Z,37.07
2023-04-30T07:24:38.775Z,37.16
2023-04-30T07:27:07.496Z,36.66
2023-04-30T07:29:35.477Z,37.51
2023-04-30T07:32:03.483Z,36.29
2023-04-30T07:34:30.532Z,36.42
2023-04-30T07:36:57.576Z,36.44
2023-04-30T07:39:24.529Z,37.25
2023-04-30T07:41:51.589Z,37.01
2023-04-30T07:44:19.098Z,37.32
2023-04-30T07:46:46.975Z,37.64
2023-04-30T07:49:14.253Z,37.91
2023-04-30T07:51:43.331Z,36.74
2023-04-30T07:54:11.066Z,36.16
2023-04-30T07:56:38.296Z,37.24
2023-04-30T07:59:06.053Z,35.98
2023-04-30T08:01:33.477Z,36.12
2023-04-30T08:04:00.913Z,34.76
2023-04-30T08:06:28.001Z,34.86
2023-04-30T08:08:55.460Z,35.15
2023-04-30T08:11:22.884Z,35.03
2023-04-30T08:13:50.343Z,34.51
2023-04-30T08:16:17.854Z,34.57
2023-04-30T08:18:46.823Z,35.21
2023-04-30T08:21:14.547Z,34.86
2023-04-30T08:23:41.622Z,34.78
2023-04-30T08:26:09.134Z,33.33
2023-04-30T08:28:39.307Z,33.17
2023-04-30T08:31:06.422Z,33.24
2023-04-30T08:33:33.681Z,33.75
2023-04-30T08:36:03.997Z,33.38
2023-04-30T08:38:30.964Z,32.95
2023-04-30T08:41:13.621Z,32.71
2023-04-30T08:43:41.628Z,32.97
2023-04-30T08:46:09.676Z,33.97
2023-04-30T08:48:37.203Z,33.46
2023-04-30T08:51:04.764Z,33.24
2023-04-30T08:53:36.201Z,33.36
2023-04-30T08:56:06.994Z,33.34
2023-04-30T08:58:34.369Z,34.11
2023-04-30T09:01:03.390Z,34.57
2023-04-30T09:03:31.740Z,33.95
2023-04-30T09:05:58.759Z,34.08
2023-04-30T09:08:43.129Z,33.70
2023-04-30T09:11:28.590Z,34.08
2023-04-30T09:13:58.306Z,34.42
2023-04-30T09:16:28.264Z,33.94
2023-04-30T09:18:56.890Z,33.60
2023-04-30T09:21:34.788Z,33.79
2023-04-30T09:24:04.623Z,33.18
2023-04-30T09:26:37.970Z,33.19
2023-04-30T09:29:10.327Z,33.50
2023-04-30T09:31:39.195Z,33.56
2023-04-30T09:34:07.334Z,32.98
2023-04-30T09:36:35.381Z,31.76
2023-04-30T09:39:15.535Z,31.48
2023-04-30T09:41:43.829Z,31.89
2023-04-30T09:44:30.195Z,32.06
2023-04-30T09:46:59.525Z,30.86
2023-04-30T09:49:27.896Z,32.24
2023-04-30T09:52:00.202Z,31.40
2023-04-30T09:54:29.605Z,31.89
2023-04-30T09:56:58.724Z,30.96
2023-04-30T09:59:35.534Z,31.68
2023-04-30T10:02:05.110Z,30.68
2023-04-30T10:04:42.276Z,30.54
2023-04-30T10:07:15.672Z,29.87
2023-04-30T10:10:05.281Z,30.74
2023-04-30T10:12:44.962Z,30.15
2023-04-30T10:15:17.831Z,29.71
2023-04-30T10:17:50.954Z,30.24
2023-04-30T10:20:23.949Z,30.02
2023-04-30T10:22:53.115Z,30.30
2023-04-30T10:25:20.259Z,29.78
2023-04-30T10:27:51.367Z,30.47
2023-04-30T10:30:19.086Z,30.16
2023-04-30T10:32:58.450Z,29.40
2023-04-30T10:35:41.781Z,30.06
2023-04-30T10:38:27.089Z,30.45
2023-04-30T10:40:59.471Z,30.53
2023-04-30T10:43:27.716Z,30.27
2023-04-30T10:45:57.377Z,30.56
2023-04-30T10:48:26.390Z,30.40
2023-04-30T10:50:56.844Z,30.51
2023-04-30T10:53:26.418Z,29.87
2023-04-30T10:55:58.646Z,30.86
2023-04-30T10:58:34.795Z,30.52
2023-04-30T11:01:15.955Z,29.77
2023-04-30T11:04:04.228Z,29.59
2023-04-30T11:06:57.062Z,28.52
2023-04-30T11:09:44.508Z,27.91
2023-04-30T11:12:11.962Z,27.82
2023-04-30T11:14:46.689Z,27.42
2023-04-30T11:17:23.845Z,28.17
2023-04-30T11:19:53.733Z,27.19
2023-04-30T11:22:24.916Z,26.29
2023-04-30T11:25:06.094Z,27.95
2023-04-30T11:27:35.369Z,27.40
2023-04-30T11:30:05.873Z,27.16
2023-04-30T11:32:35.744Z,28.19
2023-04-30T11:35:05.023Z,27.97
2023-04-30T11:37:40.478Z,27.65
2023-04-30T11:40:11.266Z,26.53
2023-04-30T11:42:40.831Z,26.90
2023-04-30T11:45:11.356Z,27.02
2023-04-30T11:47:41.741Z,26.92
2023-04-30T11:50:12.142Z,27.52
2023-04-30T11:52:40.655Z,27.60
2023-04-30T11:55:18.619Z,27.50
2023-04-30T11:57:49.078Z,26.60
2023-04-30T12:00:22.465Z,27.29
2023-04-30T12:02:51.009Z,27.38
2023-04-30T12:05:21.006Z,27.52
2023-04-30T12:07:58.439Z,26.69
2023-04-30T12:10:26.156Z,26.90
2023-04-30T12:12:54.968Z,26.55
2023-04-30T12:15:27.388Z,26.52
2023-04-30T12:17:59.666Z,26.84
2023-04-30T12:20:29.059Z,26.02
2023-04-30T12:22:57.091Z,25.83
2023-04-30T12:25:25.124Z,25.83
2023-04-30T12:27:53.822Z,25.38
2023-04-30T12:30:24.271Z,26.55
2023-04-30T12:32:53.426Z,26.60
2023-04-30T12:35:25.338Z,26.40
2023-04-30T12:38:03.094Z,26.71
2023-04-30T12:40:30.905Z,25.88
2023-04-30T12:43:06.805Z,26.09
2023-04-30T12:46:06.986Z,25.62
2023-04-30T12:48:47.844Z,26.13
2023-04-30T12:51:20.624Z,26.43
2023-04-30T12:53:48.483Z,26.71
2023-04-30T12:56:18.377Z,26.92
2023-04-30T12:58:51.391Z,27.22
2023-04-30T13:01:22.050Z,26.86
2023-04-30T13:03:50.008Z,27.03
2023-04-30T13:06:18.174Z,27.86
2023-04-30T13:08:58.010Z,28.08
2023-04-30T13:11:27.301Z,28.23
2023-04-30T13:13:57.991Z,28.24
2023-04-30T13:16:26.202Z,27.58
2023-04-30T13:18:53.764Z,27.90
2023-04-30T13:21:21.948Z,26.92
2023-04-30T13:23:53.546Z,26.65
2023-04-30T13:26:23.701Z,27.63
2023-04-30T13:28:51.725Z,25.47
2023-04-30T13:31:18.984Z,26.14
2023-04-30T13:33:46.567Z,25.04
2023-04-30T13:36:13.788Z,24.01
2023-04-30T13:38:41.965Z,23.39
2023-04-30T13:41:09.670Z,22.36
2023-04-30T13:43:41.489Z,22.51
2023-04-30T13:46:09.825Z,22.35
2023-04-30T13:48:40.184Z,22.45
2023-04-30T13:51:08.286Z,22.45
2023-04-30T13:53:37.250Z,23.03
2023-04-30T13:56:04.762Z,22.68
2023-04-30T13:58:32.446Z,23.13
2023-04-30T14:00:59.938Z,23.20
2023-04-30T14:03:27.378Z,23.61
2023-04-30T14:05:55.701Z,24.26
2023-04-30T14:08:23.549Z,24.25
2023-04-30T14:10:50.814Z,25.32
2023-04-30T14:13:18.119Z,25.43
2023-04-30T14:15:45.522Z,25.41
2023-04-30T14:18:13.623Z,25.34
2023-04-30T14:20:41.447Z,25.82
2023-04-30T14:23:09.276Z,26.28
2023-04-30T14:25:36.989Z,26.31
2023-04-30T14:28:04.292Z,27.08
2023-04-30T14:30:31.773Z,26.77
2023-04-30T14:32:59.266Z,26.69
2023-04-30T14:35:27.404Z,27.03
2023-04-30T14:37:54.617Z,26.93
2023-04-30T14:40:22.014Z,27.83
2023-04-30T14:42:50.961Z,28.17
2023-04-30T14:45:18.246Z,28.00
2023-04-30T14:47:45.852Z,28.90
2023-04-30T14:50:13.616Z,29.69
2023-04-30T14:52:42.455Z,30.46
2023-04-30T14:55:09.839Z,30.30
2023-04-30T14:57:37.980Z,30.28
2023-04-30T15:00:07.020Z,31.29
2023-04-30T15:02:34.370Z,31.13
2023-04-30T15:05:01.413Z,31.32
2023-04-30T15:07:28.932Z,31.99
2023-04-30T15:09:57.103Z,31.26
2023-04-30T15:12:24.594Z,32.27
2023-04-30T15:14:52.807Z,30.95
2023-04-30T15:17:21.831Z,32.50
2023-04-30T15:19:49.593Z,32.01
2023-04-30T15:22:17.594Z,32.11
2023-04-30T15:24:46.214Z,32.31
2023-04-30T15:27:14.387Z,32.25
2023-04-30T15:29:42.091Z,32.39
2023-04-30T15:32:09.500Z,32.45
2023-04-30T15:34:36.654Z,32.23
2023-04-30T15:37:04.462Z,32.61
2023-04-30T15:39:32.129Z,32.84
2023-04-30T15:41:59.682Z,32.94
2023-04-30T15:44:27.214Z,33.29
2023-04-30T15:46:54.508Z,32.87
2023-04-30T15:49:23.876Z,33.43
2023-04-30T15:51:52.931Z,33.71
2023-04-30T15:54:23.960Z,32.62
2023-04-30T15:56:52.352Z,32.80
2023-04-30T15:59:23.236Z,33.14
2023-04-30T16:01:51.309Z,32.46
2023-04-30T16:04:19.098Z,32.66
2023-04-30T16:06:47.167Z,32.14
2023-04-30T16:09:17.502Z,32.58
2023-04-30T16:11:44.728Z,32.04
2023-04-30T16:14:12.716Z,32.12
2023-04-30T16:16:40.411Z,32.49
2023-04-30T16:19:08.485Z,32.76
2023-04-30T16:21:38.754Z,33.26
2023-04-30T16:24:09.108Z,33.01
2023-04-30T16:26:39.917Z,33.24
2023-04-30T16:29:08.006Z,33.90
2023-04-30T16:31:36.893Z,34.18
2023-04-30T16:34:06.191Z,34.83
2023-04-30T16:36:35.262Z,35.25
2023-04-30T16:39:04.799Z,35.31
2023-04-30T16:41:31.980Z,35.44
2023-04-30T16:43:59.667Z,36.00
2023-04-30T16:46:28.192Z,36.38
2023-04-30T16:48:58.329Z,36.73
2023-04-30T16:51:27.200Z,37.69
2023-04-30T16:53:54.694Z,37.44
2023-04-30T16:56:21.994Z,37.22
2023-04-30T16:58:49.727Z,37.63
2023-04-30T17:01:16.829Z,37.75
2023-04-30T17:03:44.985Z,37.97
2023-04-30T17:06:14.544Z,38.50
2023-04-30T17:08:42.197Z,38.71
2023-04-30T17:11:09.561Z,39.07
2023-04-30T17:13:37.933Z,39.68
2023-04-30T17:16:07.546Z,39.72
2023-04-30T17:18:35.359Z,39.39
2023-04-30T17:21:03.205Z,39.45
2023-04-30T17:23:31.899Z,39.60
2023-04-30T17:26:02.214Z,39.78
2023-04-30T17:28:33.200Z,40.00
2023-04-30T17:31:07.350Z,40.25
2023-04-30T17:33:36.355Z,41.01
2023-04-30T17:36:07.685Z,41.68
2023-04-30T17:38:36.181Z,41.76
2023-04-30T17:41:04.198Z,42.22
2023-04-30T17:43:31.799Z,42.13
2023-04-30T17:45:59.593Z,42.14
2023-04-30T17:48:27.577Z,42.67
2023-04-30T17:50:55.424Z,43.22
2023-04-30T17:53:22.973Z,43.16
2023-04-30T17:55:50.221Z,43.94
2023-04-30T17:58:17.764Z,44.30
2023-04-30T18:00:45.636Z,44.27
2023-04-30T18:03:13.264Z,45.00
2023-04-30T18:05:40.135Z,45.60
2023-04-30T18:08:08.294Z,46.16
2023-04-30T18:10:35.460Z,46.95
2023-04-30T18:13:02.967Z,47.19
2023-04-30T18:15:30.296Z,48.11
2023-04-30T18:17:59.363Z,48.16
2023-04-30T18:20:26.789Z,50.28
2023-04-30T18:22:54.244Z,49.87
2023-04-30T18:25:22.664Z,50.13
2023-04-30T18:27:50.370Z,50.56
2023-04-30T18:30:17.783Z,51.37
2023-04-30T18:32:45.376Z,52.13
2023-04-30T18:35:12.898Z,52.19
2023-04-30T18:37:40.123Z,52.17
2023-04-30T18:40:07.614Z,52.71
2023-04-30T18:42:35.233Z,53.21
2023-04-30T18:45:02.470Z,53.33
2023-04-30T18:47:31.176Z,53.57
2023-04-30T18:49:58.786Z,54.01
2023-04-30T18:52:26.197Z,54.25
2023-04-30T18:54:53.824Z,55.37
2023-04-30T18:57:24.482Z,56.20
2023-04-30T18:59:51.897Z,56.98
2023-04-30T19:02:18.923Z,57.71
2023-04-30T19:04:46.624Z,58.20
2023-04-30T19:07:14.455Z,58.31
2023-04-30T19:09:42.026Z,59.72
2023-04-30T19:12:10.788Z,59.69
2023-04-30T19:14:38.168Z,60.36
2023-04-30T19:17:06.383Z,60.42
2023-04-30T19:19:33.918Z,60.98
2023-04-30T19:22:01.640Z,61.60
2023-04-30T19:24:29.474Z,61.89
2023-04-30T19:26:57.222Z,61.57
2023-04-30T19:29:24.816Z,62.15
2023-04-30T19:31:52.101Z,63.10
2023-04-30T19:34:19.129Z,63.37
2023-04-30T19:36:46.393Z,63.58
2023-04-30T19:39:14.247Z,64.61
2023-04-30T19:41:41.027Z,65.33
2023-04-30T19:44:08.362Z,66.19
2023-04-30T19:46:36.053Z,66.57
2023-04-30T19:49:04.450Z,67.80
2023-04-30T19:51:32.307Z,68.82
2023-04-30T19:53:59.500Z,69.72
2023-04-30T19:56:27.083Z,70.04
2023-04-30T19:58:54.661Z,70.29
2023-04-30T20:01:22.495Z,71.30
2023-04-30T20:03:50.077Z,72.03
2023-04-30T20:06:17.191Z,73.21
2023-04-30T20:08:44.642Z,73.06
2023-04-30T20:11:12.290Z,73.98
2023-04-30T20:13:40.051Z,73.90
2023-04-30T20:16:12.730Z,74.53
2023-04-30T20:18:39.805Z,74.65
2023-04-30T20:21:07.486Z,75.48
2023-04-30T20:23:34.508Z,76.02
2023-04-30T20:26:02.500Z,77.05
2023-04-30T20:28:31.014Z,77.12
2023-04-30T20:30:58.299Z,77.32
2023-04-30T20:33:26.863Z,78.30
2023-04-30T20:35:54.517Z,77.77
2023-04-30T20:38:22.265Z,79.13
2023-04-30T20:40:49.875Z,79.49
2023-04-30T20:43:17.585Z,78.94
2023-04-30T20:45:45.692Z,78.83
2023-04-30T20:48:13.361Z,79.18
2023-04-30T20:50:40.831Z,78.75
2023-04-30T20:53:10.363Z,79.59
2023-04-30T20:55:38.495Z,78.58
2023-04-30T20:58:05.904Z,78.51
2023-04-30T21:00:33.428Z,78.07
2023-04-30T21:03:01.041Z,78.67
2023-04-30T21:05:30.348Z,79.53
2023-04-30T21:08:01.701Z,79.43
2023-04-30T21:10:36.732Z,80.23
2023-04-30T21:13:05.928Z,80.21
2023-04-30T21:15:36.369Z,80.47
2023-04-30T21:18:04.115Z,80.45
2023-04-30T21:20:32.046Z,80.96
2023-04-30T21:22:59.502Z,81.73
2023-04-30T21:25:26.750Z,82.15
2023-04-30T21:27:53.962Z,81.42
2023-04-30T21:30:25.024Z,80.86
2023-04-30T21:32:58.365Z,82.30
2023-04-30T21:35:28.007Z,83.27
2023-04-30T21:37:55.528Z,83.35
2023-04-30T21:40:22.775Z,83.08
2023-04-30T21:42:50.062Z,83.89
2023-04-30T21:45:17.192Z,86.19
2023-04-30T21:47:45.054Z,84.78
2023-04-30T21:50:12.656Z,84.82
2023-04-30T21:52:39.777Z,84.80
2023-04-30T21:55:08.155Z,85.75
2023-04-30T21:57:35.686Z,86.60
2023-04-30T22:00:04.760Z,86.14
2023-04-30T22:02:33.234Z,85.87
2023-04-30T22:05:00.039Z,86.24
2023-04-30T22:07:28.327Z,86.55
2023-04-30T22:09:55.854Z,86.83
2023-04-30T22:12:25.375Z,86.35
2023-04-30T22:14:53.812Z,86.07
2023-04-30T22:17:21.885Z,86.75
2023-04-30T22:19:49.446Z,86.60
2023-04-30T22:22:16.802Z,87.11
2023-04-30T22:24:43.904Z,85.44
2023-04-30T22:27:11.641Z,86.15
2023-04-30T22:29:38.525Z,86.35
2023-04-30T22:32:07.697Z,85.31
2023-04-30T22:34:40.568Z,85.30
2023-04-30T22:37:08.397Z,85.82
2023-04-30T22:39:37.443Z,85.58
2023-04-30T22:42:06.210Z,86.56
2023-04-30T22:44:34.303Z,86.41
2023-04-30T22:47:02.308Z,86.57
2023-04-30T22:49:32.249Z,87.13
2023-04-30T22:52:00.381Z,87.60
2023-04-30T22:54:27.659Z,87.50
2023-04-30T22:56:55.273Z,87.20
2023-04-30T22:59:22.443Z,87.13
2023-04-30T23:01:49.878Z,87.57
2023-04-30T23:04:16.867Z,88.26
2023-04-30T23:06:44.357Z,87.73
2023-04-30T23:09:12.866Z,88.53
2023-04-30T23:11:39.882Z,87.97
2023-04-30T23:14:07.069Z,87.75
2023-04-30T23:16:34.787Z,88.73
2023-04-30T23:19:01.612Z,88.18
2023-04-30T23:21:29.063Z,89.04
2023-04-30T23:23:57.649Z,90.25
2023-04-30T23:26:25.104Z,90.12
2023-04-30T23:28:53.822Z,90.57
2023-04-30T23:31:21.361Z,90.79
2023-04-30T23:33:48.877Z,91.02
2023-04-30T23:36:16.543Z,90.99
2023-04-30T23:38:43.945Z,92.91
2023-04-30T23:41:11.436Z,92.63
2023-04-30T23:43:38.751Z,92.67
2023-04-30T23:46:06.305Z,93.42
2023-04-30T23:48:34.492Z,92.80
2023-04-30T23:51:03.277Z,93.76
2023-04-30T23:53:31.592Z,92.49
2023-04-30T23:55:59.284Z,92.05
2023-04-30T23:58:27.272Z,91.43
